Time;durP1;ratioP1;P1;durP2;ratioP2;P2;SDS_P1;SDS_P2;PMS_P1;PMS_P2;Temp;Humidity;BMP_temperature;BMP_pressure;BME280_temperature;BME280_humidity;BME280_pressure;Samples;Min_cycle;Max_cycle;Signal;HPM_P1;HPM_P2
2022/04/30 00:00:12;;;;;;;14.73;13.43;;;9.10;99.90;;;;;;5032634;28;20496;-60
2022/04/30 00:02:39;;;;;;;14.87;13.37;;;9.10;99.90;;;;;;5029808;28;20580;-60
2022/04/30 00:05:05;;;;;;;14.43;12.93;;;9.10;99.90;;;;;;5024633;28;20449;-61
2022/04/30 00:07:30;;;;;;;14.57;13.17;;;9.10;99.90;;;;;;5031569;28;20441;-61
2022/04/30 00:09:56;;;;;;;14.60;13.10;;;9.10;99.90;;;;;;5027538;28;20433;-61
2022/04/30 00:12:22;;;;;;;14.57;13.17;;;9.10;99.90;;;;;;5029469;28;20237;-61
2022/04/30 00:14:47;;;;;;;16.13;13.87;;;9.10;99.90;;;;;;5028844;28;20290;-60
2022/04/30 00:17:13;;;;;;;15.77;14.30;;;9.20;99.90;;;;;;5030173;28;20179;-61
2022/04/30 00:19:39;;;;;;;15.33;13.80;;;9.10;99.90;;;;;;5027432;28;20183;-59
2022/04/30 00:22:05;;;;;;;14.70;13.30;;;9.10;99.90;;;;;;5031727;28;20448;-61
2022/04/30 00:24:31;;;;;;;14.87;13.37;;;9.00;99.90;;;;;;5030264;28;20488;-61
2022/04/30 00:26:59;;;;;;;14.77;13.30;;;9.00;99.90;;;;;;5029472;28;20448;-61
2022/04/30 00:29:26;;;;;;;15.70;13.27;;;8.90;99.90;;;;;;5031244;28;20191;-58
2022/04/30 00:31:52;;;;;;;13.90;12.60;;;8.90;99.90;;;;;;5028867;28;20465;-62
2022/04/30 00:34:18;;;;;;;16.80;14.10;;;8.90;99.90;;;;;;5030314;28;20943;-62
2022/04/30 00:36:43;;;;;;;15.73;14.13;;;8.90;99.90;;;;;;5029659;28;20187;-62
2022/04/30 00:39:09;;;;;;;15.73;14.33;;;8.90;99.90;;;;;;5029013;28;20686;-60
2022/04/30 00:41:36;;;;;;;16.50;14.40;;;8.90;99.90;;;;;;5030385;28;20218;-60
2022/04/30 00:44:01;;;;;;;16.47;14.77;;;8.90;99.90;;;;;;5027427;28;20720;-61
2022/04/30 00:46:27;;;;;;;16.53;14.93;;;8.90;99.90;;;;;;5030363;28;20448;-62
2022/04/30 00:48:53;;;;;;;17.33;15.40;;;8.80;99.90;;;;;;5030083;28;20183;-61
2022/04/30 00:51:22;;;;;;;16.40;14.80;;;8.80;99.90;;;;;;5028336;28;21041;-62
2022/04/30 00:53:53;;;;;;;16.27;14.70;;;8.70;99.90;;;;;;5019140;28;20469;-61
2022/04/30 00:56:43;;;;;;;14.83;13.43;;;8.70;99.90;;;;;;5031697;28;20414;-62
2022/04/30 00:59:12;;;;;;;17.03;13.50;;;8.60;99.90;;;;;;5026891;28;20452;-60
2022/04/30 01:01:37;;;;;;;14.23;12.73;;;8.50;99.90;;;;;;5026486;28;20526;-57
2022/04/30 01:04:07;;;;;;;15.50;13.60;;;8.50;99.90;;;;;;5026318;28;20545;-63
2022/04/30 01:06:55;;;;;;;14.30;13.00;;;8.50;99.90;;;;;;5029514;28;20183;-61
2022/04/30 01:09:23;;;;;;;13.60;12.20;;;8.40;99.90;;;;;;5021961;28;20461;-48
2022/04/30 01:12:06;;;;;;;13.23;12.03;;;8.40;99.90;;;;;;5030491;28;20813;-53
2022/04/30 01:14:32;;;;;;;14.37;12.93;;;8.40;99.90;;;;;;5027433;28;20441;-51
2022/04/30 01:17:05;;;;;;;13.70;12.30;;;8.40;99.90;;;;;;5028399;28;20434;-50
2022/04/30 01:19:39;;;;;;;13.97;12.43;;;8.30;99.90;;;;;;5026909;28;20429;-54
2022/04/30 01:22:19;;;;;;;15.17;13.37;;;8.30;99.90;;;;;;5029914;28;20527;-51
2022/04/30 01:24:46;;;;;;;13.10;11.70;;;8.20;99.90;;;;;;5027717;28;20441;-51
2022/04/30 01:27:12;;;;;;;12.77;11.57;;;8.20;99.90;;;;;;5044601;28;20519;-54
2022/04/30 01:29:38;;;;;;;14.00;12.60;;;8.20;99.90;;;;;;5028928;28;20475;-53
2022/04/30 01:37:41;;;;;;;14.13;12.83;;;8.10;99.90;;;;;;5044918;28;20833;-52
2022/04/30 01:40:11;;;;;;;13.57;12.23;;;8.00;99.90;;;;;;5022222;28;20446;-61
2022/04/30 01:42:39;;;;;;;14.27;12.80;;;8.00;99.90;;;;;;5042486;28;20187;-62
2022/04/30 01:45:05;;;;;;;13.40;12.07;;;8.00;99.90;;;;;;5030562;28;20441;-61
2022/04/30 01:47:34;;;;;;;13.43;12.03;;;8.00;99.90;;;;;;5028769;28;20425;-62
2022/04/30 01:50:00;;;;;;;13.70;12.33;;;8.00;99.90;;;;;;5030285;28;20429;-62
2022/04/30 01:52:25;;;;;;;15.10;12.67;;;8.00;99.90;;;;;;5028164;28;20457;-61
2022/04/30 01:54:51;;;;;;;13.13;11.83;;;8.00;99.90;;;;;;5026189;28;21004;-56
2022/04/30 01:57:23;;;;;;;13.97;12.57;;;7.90;99.90;;;;;;5029733;28;20179;-61
2022/04/30 01:59:52;;;;;;;14.47;13.00;;;7.80;99.90;;;;;;5030135;28;20195;-61
2022/04/30 02:02:23;;;;;;;13.93;12.40;;;7.80;99.90;;;;;;5045854;28;20480;-62
2022/04/30 02:04:51;;;;;;;14.40;13.00;;;7.80;99.90;;;;;;5027861;28;20477;-62
2022/04/30 02:07:18;;;;;;;14.43;12.90;;;7.80;99.90;;;;;;5026882;28;20924;-61
2022/04/30 02:09:44;;;;;;;14.00;12.70;;;7.80;99.90;;;;;;5028709;28;21282;-61
2022/04/30 02:12:09;;;;;;;13.80;12.33;;;7.80;99.90;;;;;;5029530;28;20461;-61
2022/04/30 02:14:36;;;;;;;14.47;13.00;;;7.80;99.90;;;;;;5022810;28;20260;-61
2022/04/30 02:17:02;;;;;;;13.87;12.50;;;7.70;99.90;;;;;;5026576;28;20194;-61
2022/04/30 02:19:29;;;;;;;16.40;12.13;;;7.70;99.90;;;;;;5025544;28;20441;-61
2022/04/30 02:21:59;;;;;;;12.57;11.37;;;7.70;99.90;;;;;;5028968;28;20912;-61
2022/04/30 02:24:27;;;;;;;13.30;12.10;;;7.70;99.90;;;;;;5025533;28;20445;-61
2022/04/30 02:26:54;;;;;;;13.47;12.07;;;7.70;99.90;;;;;;5029861;28;20418;-61
2022/04/30 02:29:20;;;;;;;15.90;12.27;;;7.70;99.90;;;;;;5026652;28;20437;-62
2022/04/30 02:31:45;;;;;;;13.67;12.27;;;7.60;99.90;;;;;;5027717;28;20458;-62
2022/04/30 02:34:11;;;;;;;13.40;12.00;;;7.60;99.90;;;;;;5020232;28;20867;-61
2022/04/30 02:36:36;;;;;;;13.80;12.37;;;7.60;99.90;;;;;;5027844;28;20533;-62
2022/04/30 02:39:02;;;;;;;14.40;12.63;;;7.60;99.90;;;;;;5024590;28;20203;-61
2022/04/30 02:41:29;;;;;;;13.10;11.70;;;7.60;99.90;;;;;;5025110;28;20187;-62
2022/04/30 02:43:56;;;;;;;14.70;13.20;;;7.50;99.90;;;;;;5026310;28;20461;-62
2022/04/30 02:46:21;;;;;;;14.33;12.93;;;7.60;99.90;;;;;;5028090;28;20486;-61
2022/04/30 02:48:48;;;;;;;14.63;13.10;;;7.50;99.90;;;;;;5028230;28;21260;-61
2022/04/30 02:51:17;;;;;;;13.20;11.90;;;7.50;99.90;;;;;;5027072;28;20211;-61
2022/04/30 02:53:43;;;;;;;13.60;12.30;;;7.50;99.90;;;;;;5027738;28;20480;-61
2022/04/30 02:56:10;;;;;;;14.50;13.00;;;7.50;99.90;;;;;;5043498;28;20488;-60
2022/04/30 03:01:21;;;;;;;14.83;13.30;;;7.50;99.90;;;;;;5026010;28;20520;-61
2022/04/30 03:03:47;;;;;;;14.07;12.57;;;7.40;99.90;;;;;;5027551;28;20561;-62
2022/04/30 03:06:14;;;;;;;15.07;13.20;;;7.40;99.90;;;;;;5027522;28;20503;-62
2022/04/30 03:08:40;;;;;;;13.77;12.37;;;7.40;99.90;;;;;;5027995;28;20943;-62
2022/04/30 03:11:07;;;;;;;14.03;12.63;;;7.40;99.90;;;;;;5025479;28;20460;-61
2022/04/30 03:13:36;;;;;;;14.63;13.20;;;7.40;99.90;;;;;;5021674;28;20590;-61
2022/04/30 03:21:44;;;;;;;13.93;12.40;;;7.40;99.90;;;;;;5027228;28;20460;-60
2022/04/30 03:24:15;;;;;;;14.70;13.00;;;7.40;99.90;;;;;;5027004;28;20473;-61
2022/04/30 03:26:42;;;;;;;14.90;13.33;;;7.30;99.90;;;;;;5027674;28;20437;-62
2022/04/30 03:29:08;;;;;;;15.47;13.77;;;7.40;99.90;;;;;;5028300;28;20483;-61
2022/04/30 03:31:34;;;;;;;14.23;12.67;;;7.30;99.90;;;;;;5026975;28;20465;-62
2022/04/30 03:34:00;;;;;;;16.40;13.60;;;7.30;99.90;;;;;;5025273;28;20495;-61
2022/04/30 03:36:26;;;;;;;15.43;12.50;;;7.30;99.90;;;;;;5027829;28;20186;-62
2022/04/30 03:38:52;;;;;;;13.97;12.50;;;7.30;99.90;;;;;;5027544;28;20544;-62
2022/04/30 03:41:18;;;;;;;13.30;12.00;;;7.30;99.90;;;;;;5025299;28;20487;-61
2022/04/30 03:43:43;;;;;;;16.07;12.97;;;7.30;99.90;;;;;;5023544;28;20183;-62
2022/04/30 03:46:09;;;;;;;13.93;12.63;;;7.20;99.90;;;;;;5026804;28;20444;-62
2022/04/30 03:48:35;;;;;;;15.60;13.20;;;7.30;99.90;;;;;;5027298;28;20268;-62
2022/04/30 03:51:00;;;;;;;14.73;13.17;;;7.20;99.90;;;;;;5026770;28;20190;-62
2022/04/30 03:53:26;;;;;;;15.50;13.50;;;7.20;99.90;;;;;;5026087;28;20222;-62
2022/04/30 03:55:53;;;;;;;15.20;13.57;;;7.20;99.90;;;;;;5027780;28;20213;-61
2022/04/30 03:58:19;;;;;;;13.80;12.40;;;7.20;99.90;;;;;;5027353;28;20195;-62
2022/04/30 04:00:46;;;;;;;18.97;13.10;;;7.20;99.90;;;;;;5028337;28;20524;-55
2022/04/30 04:03:12;;;;;;;14.33;12.93;;;7.20;99.90;;;;;;5027144;28;20445;-61
2022/04/30 04:05:38;;;;;;;17.37;12.90;;;7.20;99.90;;;;;;5028750;28;20441;-61
2022/04/30 04:08:12;;;;;;;15.53;12.50;;;7.20;99.90;;;;;;5026913;28;20433;-61
2022/04/30 04:10:38;;;;;;;13.93;12.43;;;7.20;99.90;;;;;;5027578;28;20183;-62
2022/04/30 04:18:32;;;;;;;13.07;11.87;;;7.30;99.90;;;;;;5030410;28;21002;-60
2022/04/30 04:20:58;;;;;;;14.53;12.13;;;7.30;99.90;;;;;;5033997;28;20500;-61
2022/04/30 04:23:23;;;;;;;17.57;12.53;;;7.30;99.90;;;;;;5030344;28;20176;-60
2022/04/30 04:26:01;;;;;;;12.50;11.20;;;7.30;99.90;;;;;;5031846;28;20234;-61
2022/04/30 04:28:27;;;;;;;12.10;10.90;;;7.30;99.90;;;;;;5031526;28;20187;-61
2022/04/30 04:30:53;;;;;;;13.30;11.87;;;7.30;99.90;;;;;;5033426;28;20416;-61
2022/04/30 04:33:19;;;;;;;12.47;11.27;;;7.40;99.90;;;;;;5028566;28;20469;-60
2022/04/30 04:35:44;;;;;;;13.30;11.77;;;7.40;99.90;;;;;;5030270;28;20187;-61
2022/04/30 04:38:10;;;;;;;13.70;11.37;;;7.40;99.90;;;;;;5031068;28;20204;-61
2022/04/30 04:40:35;;;;;;;13.57;12.20;;;7.50;99.90;;;;;;5032924;28;20183;-62
2022/04/30 04:43:01;;;;;;;14.07;12.67;;;7.50;99.90;;;;;;5030458;28;20178;-59
2022/04/30 04:45:27;;;;;;;13.77;12.37;;;7.50;99.90;;;;;;5032305;28;20190;-61
2022/04/30 04:47:53;;;;;;;13.07;11.70;;;7.60;99.90;;;;;;5028241;28;20175;-60
2022/04/30 04:50:19;;;;;;;12.73;11.43;;;7.70;99.90;;;;;;5031403;28;20182;-61
2022/04/30 04:52:45;;;;;;;14.30;12.17;;;7.80;99.90;;;;;;5025151;28;20481;-61
2022/04/30 04:55:11;;;;;;;12.60;11.30;;;7.80;99.90;;;;;;5026271;28;20461;-61
2022/04/30 04:57:37;;;;;;;13.10;11.80;;;7.90;99.90;;;;;;5027169;28;20443;-61
2022/04/30 05:00:04;;;;;;;13.30;12.00;;;7.90;99.90;;;;;;5029092;28;20194;-61
2022/04/30 05:02:30;;;;;;;13.90;12.10;;;8.00;99.90;;;;;;5030834;28;20434;-61
2022/04/30 05:04:56;;;;;;;13.40;12.00;;;8.10;99.90;;;;;;5028358;28;20833;-60
2022/04/30 05:07:21;;;;;;;11.90;10.77;;;8.20;99.90;;;;;;5028715;28;20441;-58
2022/04/30 05:09:47;;;;;;;12.57;11.27;;;8.20;99.90;;;;;;5026734;28;20285;-60
2022/04/30 05:12:13;;;;;;;13.47;12.17;;;8.30;99.90;;;;;;5029408;28;20210;-61
2022/04/30 05:14:38;;;;;;;14.20;12.80;;;8.30;99.90;;;;;;5026109;28;20245;-61
2022/04/30 05:17:07;;;;;;;13.93;12.53;;;8.40;99.90;;;;;;5028204;28;20435;-61
2022/04/30 05:19:33;;;;;;;14.30;11.93;;;8.50;99.90;;;;;;5030712;28;20210;-61
2022/04/30 05:21:58;;;;;;;14.37;12.87;;;8.50;99.90;;;;;;5028535;28;20437;-61
2022/04/30 05:24:24;;;;;;;13.13;11.80;;;8.60;99.90;;;;;;5029848;28;20537;-62
2022/04/30 05:26:49;;;;;;;13.77;12.00;;;8.60;99.90;;;;;;5028383;28;20695;-58
2022/04/30 05:29:16;;;;;;;13.80;12.40;;;8.70;99.90;;;;;;5028116;28;20218;-60
2022/04/30 05:31:41;;;;;;;13.80;12.30;;;8.60;99.90;;;;;;5027320;28;20279;-60
2022/04/30 05:34:07;;;;;;;14.20;12.63;;;8.70;99.90;;;;;;5022875;28;20433;-61
2022/04/30 05:36:32;;;;;;;12.70;11.50;;;8.70;99.90;;;;;;5030643;28;20210;-61
2022/04/30 05:38:59;;;;;;;12.80;11.63;;;8.80;99.90;;;;;;5023790;28;20184;-60
2022/04/30 05:41:25;;;;;;;14.47;12.87;;;9.00;99.90;;;;;;5031043;28;20211;-60
2022/04/30 05:43:51;;;;;;;13.50;11.97;;;9.00;99.90;;;;;;5044341;28;20497;-61
2022/04/30 05:46:16;;;;;;;13.50;12.20;;;9.10;99.90;;;;;;5027538;28;20461;-61
2022/04/30 05:48:42;;;;;;;13.10;11.83;;;9.10;99.90;;;;;;5025223;28;20206;-60
2022/04/30 05:51:07;;;;;;;16.80;11.13;;;9.10;99.90;;;;;;5027168;28;20697;-60
2022/04/30 05:53:33;;;;;;;12.83;10.97;;;9.30;99.90;;;;;;5024519;28;20593;-61
2022/04/30 05:55:58;;;;;;;13.03;11.63;;;9.40;99.90;;;;;;5028333;28;20233;-61
2022/04/30 05:58:24;;;;;;;11.77;10.57;;;9.60;99.90;;;;;;5028881;28;20199;-61
2022/04/30 06:00:50;;;;;;;12.57;11.27;;;9.80;99.90;;;;;;5028252;28;20171;-62
2022/04/30 06:03:15;;;;;;;11.80;10.60;;;9.90;99.90;;;;;;5019000;28;20540;-62
2022/04/30 06:05:41;;;;;;;12.27;10.97;;;10.00;99.90;;;;;;5017084;28;21103;-62
2022/04/30 06:08:08;;;;;;;13.03;11.73;;;10.10;99.90;;;;;;5019308;28;20190;-60
2022/04/30 06:10:33;;;;;;;12.20;11.00;;;10.20;99.90;;;;;;5018483;28;20438;-62
2022/04/30 06:12:59;;;;;;;13.13;11.73;;;10.30;99.90;;;;;;5018715;28;20461;-62
2022/04/30 06:15:25;;;;;;;14.30;11.03;;;10.40;99.90;;;;;;5018496;28;20179;-62
2022/04/30 06:17:50;;;;;;;11.90;10.90;;;10.60;99.90;;;;;;5017501;28;20178;-63
2022/04/30 06:20:16;;;;;;;13.93;11.80;;;10.70;99.90;;;;;;5016453;28;20425;-61
2022/04/30 06:22:42;;;;;;;12.47;10.90;;;10.80;99.90;;;;;;5018042;28;20294;-62
2022/04/30 06:25:08;;;;;;;12.30;11.10;;;10.90;99.90;;;;;;5017473;28;20657;-62
2022/04/30 06:27:34;;;;;;;12.80;11.60;;;11.10;99.90;;;;;;5019993;28;20198;-62
2022/04/30 06:30:00;;;;;;;13.53;11.47;;;11.20;99.90;;;;;;5018662;28;20544;-62
2022/04/30 06:32:27;;;;;;;12.67;11.50;;;11.30;99.90;;;;;;5019664;28;20463;-63
2022/04/30 06:34:52;;;;;;;12.37;11.07;;;11.50;99.90;;;;;;5020565;28;20455;-62
2022/04/30 06:37:18;;;;;;;12.33;11.10;;;11.60;99.90;;;;;;5021369;28;20430;-62
2022/04/30 06:39:44;;;;;;;11.90;10.80;;;11.70;99.90;;;;;;5025812;28;20179;-63
2022/04/30 06:42:10;;;;;;;12.60;11.30;;;11.80;99.90;;;;;;5024607;28;20194;-62
2022/04/30 06:44:36;;;;;;;12.30;11.10;;;12.00;99.90;;;;;;5014360;28;20441;-61
2022/04/30 06:47:01;;;;;;;13.60;11.00;;;12.30;99.90;;;;;;5021945;28;20845;-59
2022/04/30 06:49:27;;;;;;;12.03;10.83;;;12.50;99.90;;;;;;5026527;28;20178;-62
2022/04/30 06:51:53;;;;;;;11.77;10.67;;;12.60;99.90;;;;;;5040469;28;20199;-62
2022/04/30 06:57:14;;;;;;;11.37;10.43;;;13.00;99.10;;;;;;5023372;28;20190;-65
2022/04/30 06:59:41;;;;;;;11.13;10.13;;;13.10;98.20;;;;;;5018423;28;20425;-59
2022/04/30 07:02:17;;;;;;;12.10;10.93;;;13.40;98.10;;;;;;5017579;28;20965;-55
2022/04/30 07:04:44;;;;;;;12.67;11.47;;;13.50;97.20;;;;;;5019134;28;20766;-53
2022/04/30 07:07:10;;;;;;;10.80;9.90;;;13.60;96.40;;;;;;5015893;28;20437;-52
2022/04/30 07:09:36;;;;;;;12.50;11.27;;;13.80;95.80;;;;;;5016519;28;20535;-54
2022/04/30 07:12:04;;;;;;;11.27;10.37;;;14.00;95.60;;;;;;5017543;28;20469;-51
2022/04/30 07:14:32;;;;;;;15.43;10.80;;;13.90;95.40;;;;;;5019535;28;20519;-52
2022/04/30 07:16:57;;;;;;;11.53;10.50;;;14.00;95.50;;;;;;5026503;28;20469;-52
2022/04/30 07:19:23;;;;;;;11.53;10.53;;;14.20;95.10;;;;;;5028790;28;20460;-51
2022/04/30 07:21:48;;;;;;;11.53;10.33;;;14.30;94.40;;;;;;5028373;28;20183;-52
2022/04/30 07:24:14;;;;;;;15.50;11.87;;;14.50;94.20;;;;;;5028966;28;20182;-55
2022/04/30 07:26:40;;;;;;;13.70;12.10;;;14.60;94.40;;;;;;5027633;28;20666;-53
2022/04/30 07:29:05;;;;;;;16.30;12.07;;;14.70;94.90;;;;;;5027996;28;20206;-52
2022/04/30 07:31:31;;;;;;;11.57;10.57;;;14.70;95.30;;;;;;5028494;28;20212;-51
2022/04/30 07:33:56;;;;;;;12.33;11.23;;;14.80;95.70;;;;;;5026937;28;20191;-55
2022/04/30 07:36:22;;;;;;;16.17;11.93;;;14.80;95.60;;;;;;5028456;28;20202;-49
2022/04/30 07:38:47;;;;;;;19.17;12.40;;;14.80;96.80;;;;;;5027298;28;20183;-50
2022/04/30 07:41:13;;;;;;;13.20;11.90;;;14.80;97.20;;;;;;5029177;28;20180;-51
2022/04/30 07:43:38;;;;;;;12.20;11.07;;;14.90;97.10;;;;;;5028645;28;20188;-50
2022/04/30 07:46:04;;;;;;;12.50;11.40;;;15.00;96.80;;;;;;5027066;28;20183;-50
2022/04/30 07:48:29;;;;;;;32.30;23.70;;;15.10;96.30;;;;;;5027544;28;20607;-50
2022/04/30 07:50:57;;;;;;;15.70;14.13;;;15.20;96.50;;;;;;5028876;28;20183;-50
2022/04/30 07:53:24;;;;;;;15.43;13.93;;;15.40;96.10;;;;;;5031722;28;20242;-53
2022/04/30 07:55:51;;;;;;;18.90;16.97;;;15.60;94.50;;;;;;5033007;28;20430;-50
2022/04/30 07:58:16;;;;;;;17.27;15.67;;;15.70;93.80;;;;;;5032297;28;20497;-53
2022/04/30 08:00:42;;;;;;;17.47;15.77;;;15.80;94.10;;;;;;5030636;28;20435;-49
2022/04/30 08:03:07;;;;;;;14.20;13.00;;;15.90;93.10;;;;;;5031353;28;20200;-55
2022/04/30 08:05:34;;;;;;;12.60;11.20;;;16.00;92.70;;;;;;5031506;28;20498;-53
2022/04/30 08:07:59;;;;;;;12.17;10.97;;;16.20;92.00;;;;;;5031763;28;20190;-51
2022/04/30 08:10:25;;;;;;;11.50;10.60;;;16.30;91.50;;;;;;5031111;28;20470;-54
2022/04/30 08:12:55;;;;;;;13.63;12.17;;;16.40;92.10;;;;;;5032309;28;20571;-49
2022/04/30 08:15:24;;;;;;;15.37;13.93;;;16.70;90.90;;;;;;5023029;28;20522;-53
2022/04/30 08:17:51;;;;;;;16.30;14.90;;;16.80;88.40;;;;;;5031997;28;20435;-52
2022/04/30 08:20:17;;;;;;;17.20;15.80;;;16.90;86.90;;;;;;5030516;28;20441;-52
2022/04/30 08:22:42;;;;;;;13.97;12.67;;;16.90;87.20;;;;;;5047451;28;21114;-50
2022/04/30 08:25:08;;;;;;;12.20;11.20;;;17.00;84.50;;;;;;5031510;28;20549;-51
2022/04/30 08:27:34;;;;;;;11.87;10.87;;;17.30;82.60;;;;;;5031470;28;20272;-48
2022/04/30 08:30:00;;;;;;;13.60;12.50;;;17.40;84.10;;;;;;5029694;28;20520;-55
2022/04/30 08:32:25;;;;;;;16.53;15.00;;;17.70;82.80;;;;;;5031859;28;20256;-50
2022/04/30 08:34:52;;;;;;;12.50;11.30;;;17.70;82.50;;;;;;5030929;28;20633;-48
2022/04/30 08:37:18;;;;;;;12.83;11.83;;;17.90;81.60;;;;;;5030512;28;20186;-55
2022/04/30 08:39:44;;;;;;;12.03;11.03;;;18.10;80.70;;;;;;5030300;28;20423;-53
2022/04/30 08:42:12;;;;;;;12.93;11.80;;;18.00;81.00;;;;;;5045042;28;20453;-52
2022/04/30 08:44:38;;;;;;;12.57;11.17;;;18.00;80.90;;;;;;5030864;28;20438;-51
2022/04/30 08:47:04;;;;;;;12.83;11.83;;;18.10;77.70;;;;;;5031018;28;20473;-52
2022/04/30 08:49:31;;;;;;;12.03;11.13;;;18.20;72.90;;;;;;5030852;28;20422;-52
2022/04/30 08:51:57;;;;;;;13.77;12.67;;;18.40;69.80;;;;;;5030628;28;20492;-50
2022/04/30 08:54:24;;;;;;;13.50;12.23;;;18.50;67.70;;;;;;5031485;28;20465;-53
2022/04/30 08:56:54;;;;;;;15.43;11.70;;;18.80;67.80;;;;;;5031070;28;20688;-54
2022/04/30 08:59:20;;;;;;;13.10;11.00;;;18.90;66.50;;;;;;5031031;28;20499;-52
2022/04/30 09:01:46;;;;;;;12.17;11.07;;;19.10;66.90;;;;;;5030058;28;20446;-54
2022/04/30 09:04:12;;;;;;;14.13;12.73;;;19.70;62.80;;;;;;5030213;28;20195;-52
2022/04/30 09:06:53;;;;;;;12.13;11.20;;;19.80;62.30;;;;;;5030376;28;20952;-51
2022/04/30 09:09:30;;;;;;;13.60;12.50;;;20.00;63.30;;;;;;5046689;28;21015;-60
2022/04/30 09:12:14;;;;;;;11.47;10.67;;;20.20;59.40;;;;;;5026918;28;20473;-60
2022/04/30 09:14:41;;;;;;;11.27;10.47;;;20.60;57.50;;;;;;5031691;28;20423;-53
2022/04/30 09:17:12;;;;;;;12.10;11.10;;;21.30;57.40;;;;;;5030841;28;20444;-60
2022/04/30 09:19:59;;;;;;;12.23;11.33;;;21.50;53.80;;;;;;5028504;28;20441;-61
2022/04/30 09:22:36;;;;;;;12.43;11.43;;;21.40;51.70;;;;;;5029605;28;20459;-59
2022/04/30 09:25:04;;;;;;;11.43;10.50;;;21.50;50.40;;;;;;5030988;28;20421;-60
2022/04/30 09:27:31;;;;;;;10.63;9.73;;;21.90;48.90;;;;;;5030417;28;20445;-61
2022/04/30 09:29:57;;;;;;;12.97;11.87;;;22.00;46.20;;;;;;5031008;28;20513;-61
2022/04/30 09:32:25;;;;;;;12.43;11.53;;;22.40;45.30;;;;;;5029507;28;20465;-58
2022/04/30 09:37:43;;;;;;;11.93;10.97;;;22.10;46.10;;;;;;5030572;28;20416;-60
2022/04/30 09:40:14;;;;;;;12.60;11.53;;;21.90;46.60;;;;;;5030937;28;20409;-60
2022/04/30 09:42:48;;;;;;;12.00;11.00;;;22.00;44.80;;;;;;5027664;28;20438;-60
2022/04/30 09:45:31;;;;;;;12.27;11.27;;;22.20;44.80;;;;;;5023990;28;20455;-60
2022/04/30 09:47:59;;;;;;;12.83;11.90;;;22.40;43.60;;;;;;5029861;28;20884;-60
2022/04/30 09:56:08;;;;;;;12.37;11.43;;;22.80;42.40;;;;;;5030894;28;20452;-60
2022/04/30 09:58:38;;;;;;;12.20;11.30;;;22.90;41.40;;;;;;5031062;28;21442;-60
2022/04/30 10:01:05;;;;;;;11.80;10.87;;;22.80;39.90;;;;;;5046661;28;20429;-60
2022/04/30 10:03:33;;;;;;;13.23;12.20;;;22.70;42.30;;;;;;5031161;28;20992;-59
2022/04/30 10:06:05;;;;;;;11.73;10.83;;;22.90;41.10;;;;;;5030172;28;20452;-59
2022/04/30 10:08:37;;;;;;;13.87;12.67;;;22.70;42.20;;;;;;5031848;28;20441;-60
2022/04/30 10:11:37;;;;;;;11.83;10.93;;;22.70;40.90;;;;;;5025020;28;20429;-60
2022/04/30 10:14:14;;;;;;;12.13;11.00;;;23.30;41.70;;;;;;5028221;28;20745;-60
2022/04/30 10:17:11;;;;;;;12.80;11.80;;;23.90;41.30;;;;;;5031914;28;20418;-60
2022/04/30 10:19:34;;;;;;;12.63;11.70;;;24.20;39.90;;;;;;5018443;28;20435;-60
2022/04/30 10:22:14;;;;;;;12.97;11.93;;;24.30;40.00;;;;;;5031759;28;20427;-60
2022/04/30 10:24:47;;;;;;;12.43;11.43;;;25.10;39.60;;;;;;5030629;28;20747;-60
2022/04/30 10:27:14;;;;;;;12.33;11.40;;;25.70;35.80;;;;;;5031389;28;20408;-60
2022/04/30 10:29:52;;;;;;;13.30;12.27;;;26.00;35.40;;;;;;5029137;28;20503;-60
2022/04/30 10:32:32;;;;;;;13.00;12.10;;;26.30;34.00;;;;;;5031052;28;20468;-60
2022/04/30 10:34:58;;;;;;;12.57;11.47;;;27.10;31.90;;;;;;5030485;28;20429;-60
2022/04/30 10:37:33;;;;;;;11.80;10.70;;;27.20;32.80;;;;;;5031401;28;20429;-60
2022/04/30 10:40:00;;;;;;;11.67;10.77;;;27.60;32.10;;;;;;5016822;28;20425;-60
2022/04/30 10:42:38;;;;;;;12.10;11.20;;;28.40;31.00;;;;;;5042083;28;20635;-60
2022/04/30 10:45:04;;;;;;;13.33;12.20;;;28.80;28.40;;;;;;5030114;28;20427;-60
2022/04/30 10:47:30;;;;;;;12.30;11.20;;;28.10;28.10;;;;;;5031400;28;20422;-60
2022/04/30 10:49:56;;;;;;;12.00;11.00;;;27.70;28.20;;;;;;5030338;28;20424;-60
2022/04/30 10:52:24;;;;;;;12.43;11.43;;;27.60;28.50;;;;;;5030926;28;20298;-60
2022/04/30 10:54:54;;;;;;;12.80;11.80;;;27.20;28.90;;;;;;5029567;28;20226;-60
2022/04/30 10:57:20;;;;;;;12.43;11.33;;;26.90;28.40;;;;;;5030237;28;20513;-60
2022/04/30 11:00:01;;;;;;;12.30;11.30;;;27.00;28.30;;;;;;5028000;28;20422;-60
2022/04/30 11:02:31;;;;;;;12.47;11.47;;;26.60;28.80;;;;;;5028470;28;20429;-60
2022/04/30 11:04:56;;;;;;;12.73;11.60;;;27.40;27.00;;;;;;5026619;28;20452;-60
2022/04/30 11:07:22;;;;;;;12.40;11.50;;;27.60;26.20;;;;;;5027588;28;20425;-60
2022/04/30 11:09:48;;;;;;;11.47;10.57;;;27.10;26.10;;;;;;5029315;28;20175;-60
2022/04/30 11:12:14;;;;;;;11.97;11.17;;;27.00;26.60;;;;;;5028246;28;20293;-60
2022/04/30 11:14:44;;;;;;;12.80;11.73;;;26.80;27.20;;;;;;5028701;28;20202;-60
2022/04/30 11:17:10;;;;;;;12.97;11.77;;;26.50;28.00;;;;;;5028542;28;20426;-60
2022/04/30 11:19:41;;;;;;;12.17;11.07;;;26.40;27.60;;;;;;5028234;28;20432;-60
2022/04/30 11:22:09;;;;;;;11.60;10.70;;;26.60;27.20;;;;;;5028787;28;20236;-61
2022/04/30 11:24:37;;;;;;;11.67;10.73;;;27.20;27.00;;;;;;5028483;28;20451;-60
2022/04/30 11:27:05;;;;;;;11.83;11.03;;;28.10;26.80;;;;;;5042498;28;20441;-61
2022/04/30 11:29:35;;;;;;;11.60;10.70;;;28.80;25.60;;;;;;5027813;28;20461;-60
2022/04/30 11:32:01;;;;;;;12.60;11.67;;;28.80;99.90;;;;;;5017072;28;20522;-60
2022/04/30 11:34:27;;;;;;;11.07;10.30;;;28.90;99.90;;;;;;5021657;28;21201;-60
2022/04/30 11:36:55;;;;;;;10.70;10.00;;;29.80;99.90;;;;;;5029018;28;20421;-60
2022/04/30 11:39:21;;;;;;;11.00;10.20;;;30.20;99.90;;;;;;5028229;28;20285;-60
2022/04/30 11:41:52;;;;;;;11.17;10.37;;;30.50;99.90;;;;;;5027865;28;20859;-58
2022/04/30 11:44:19;;;;;;;11.20;10.37;;;30.40;99.90;;;;;;5027855;28;20505;-60
2022/04/30 11:46:46;;;;;;;12.00;11.10;;;30.40;99.90;;;;;;5028191;28;20471;-60
2022/04/30 11:49:14;;;;;;;11.10;10.30;;;30.40;99.90;;;;;;5027693;28;20438;-60
2022/04/30 11:51:41;;;;;;;10.30;9.60;;;30.40;99.90;;;;;;5028893;28;20476;-58
2022/04/30 11:54:12;;;;;;;11.17;10.37;;;29.80;99.90;;;;;;5028485;28;20470;-60
2022/04/30 11:56:39;;;;;;;12.17;11.27;;;29.10;99.90;;;;;;5028444;28;20425;-59
2022/04/30 11:59:05;;;;;;;11.30;10.47;;;28.10;99.90;;;;;;5027219;28;20487;-60
2022/04/30 12:01:35;;;;;;;12.10;11.10;;;27.70;99.90;;;;;;5025023;28;20459;-59
2022/04/30 12:04:05;;;;;;;12.10;11.30;;;27.10;99.90;;;;;;5028538;28;20837;-61
2022/04/30 12:06:32;;;;;;;11.90;10.77;;;26.70;99.90;;;;;;5028076;28;20426;-60
2022/04/30 12:08:58;;;;;;;11.80;11.00;;;26.70;99.90;;;;;;5027597;28;20424;-60
2022/04/30 12:11:24;;;;;;;11.37;10.37;;;26.30;99.90;;;;;;5025331;28;20513;-60
2022/04/30 12:14:03;;;;;;;11.30;10.40;;;26.30;99.90;;;;;;5028790;28;20422;-60
2022/04/30 12:16:40;;;;;;;9.90;9.20;;;26.10;99.90;;;;;;5026662;28;20780;-60
2022/04/30 12:24:57;;;;;;;11.13;10.30;;;26.30;99.90;;;;;;5027812;28;20518;-60
2022/04/30 12:27:23;;;;;;;9.77;9.17;;;26.40;99.90;;;;;;5027265;28;21060;-60
2022/04/30 12:30:06;;;;;;;9.40;8.80;;;26.60;99.90;;;;;;5027888;28;20429;-60
2022/04/30 12:32:35;;;;;;;8.57;8.07;;;26.50;99.90;;;;;;5027134;28;20459;-60
2022/04/30 12:35:01;;;;;;;9.87;9.20;;;26.70;99.90;;;;;;5026788;28;20657;-60
2022/04/30 12:37:34;;;;;;;10.10;9.40;;;27.00;99.90;;;;;;5027648;28;20422;-57
2022/04/30 12:40:00;;;;;;;10.87;10.00;;;27.40;99.90;;;;;;5032429;28;20421;-60
2022/04/30 12:42:26;;;;;;;11.20;10.40;;;27.90;99.90;;;;;;5030932;28;20472;-60
2022/04/30 12:44:52;;;;;;;11.30;10.50;;;28.20;99.90;;;;;;5031526;28;20468;-59
2022/04/30 12:47:17;;;;;;;10.97;10.27;;;28.40;99.90;;;;;;5030250;28;20215;-60
2022/04/30 12:49:43;;;;;;;9.97;9.27;;;28.20;99.90;;;;;;5030107;28;20190;-60
2022/04/30 12:52:08;;;;;;;9.90;9.07;;;28.10;99.90;;;;;;5030465;28;20253;-60
2022/04/30 12:54:34;;;;;;;9.67;8.97;;;27.80;99.90;;;;;;5030911;28;20230;-60
2022/04/30 12:56:59;;;;;;;9.47;8.87;;;27.90;99.90;;;;;;5029526;28;20226;-60
2022/04/30 12:59:25;;;;;;;9.57;8.77;;;28.20;99.90;;;;;;5030526;28;20637;-59
2022/04/30 13:01:52;;;;;;;9.80;9.20;;;28.10;99.90;;;;;;5029314;28;20700;-59
2022/04/30 13:04:18;;;;;;;10.20;9.50;;;27.90;99.90;;;;;;5029669;28;20179;-59
2022/04/30 13:06:44;;;;;;;10.53;9.73;;;28.00;99.90;;;;;;5025411;28;20522;-59
2022/04/30 13:14:37;;;;;;;10.40;9.70;;;27.90;99.90;;;;;;5028266;28;20848;-59
2022/04/30 13:17:03;;;;;;;9.60;9.00;;;28.30;99.90;;;;;;5029358;28;20436;-59